sensor_id;sensor_type;location;lat;lon;timestamp;pressure;altitude;pressure_sealevel;temperature;humidity
74960;BME280;63518;49.572;1.106;2023-04-03T00:00:33;100820.56;;;3.98;69.27
74960;BME280;63518;49.572;1.106;2023-04-03T00:03:01;100819.09;;;4.02;68.90
74960;BME280;63518;49.572;1.106;2023-04-03T00:05:28;100821.84;;;3.96;71.22
74960;BME280;63518;49.572;1.106;2023-04-03T00:07:54;100811.34;;;3.99;69.13
74960;BME280;63518;49.572;1.106;2023-04-03T00:10:21;100811.19;;;3.68;69.03
74960;BME280;63518;49.572;1.106;2023-04-03T00:12:48;100805.03;;;3.99;69.97
74960;BME280;63518;49.572;1.106;2023-04-03T00:15:16;100808.81;;;4.11;70.47
74960;BME280;63518;49.572;1.106;2023-04-03T00:17:43;100789.50;;;3.99;68.36
74960;BME280;63518;49.572;1.106;2023-04-03T00:20:10;100814.81;;;4.26;69.84
74960;BME280;63518;49.572;1.106;2023-04-03T00:22:37;100814.66;;;4.08;69.00
74960;BME280;63518;49.572;1.106;2023-04-03T00:25:04;100812.44;;;4.56;68.06
74960;BME280;63518;49.572;1.106;2023-04-03T00:27:31;100785.50;;;4.02;68.46
74960;BME280;63518;49.572;1.106;2023-04-03T00:29:58;100811.72;;;4.09;69.80
74960;BME280;63518;49.572;1.106;2023-04-03T00:32:25;100796.03;;;3.92;68.93
74960;BME280;63518;49.572;1.106;2023-04-03T00:34:51;100798.69;;;4.18;69.29
74960;BME280;63518;49.572;1.106;2023-04-03T00:37:18;100799.38;;;3.87;69.47
74960;BME280;63518;49.572;1.106;2023-04-03T00:39:45;100764.44;;;3.58;67.33
74960;BME280;63518;49.572;1.106;2023-04-03T00:42:12;100798.75;;;4.05;68.39
74960;BME280;63518;49.572;1.106;2023-04-03T00:47:08;100786.81;;;3.93;67.73
74960;BME280;63518;49.572;1.106;2023-04-03T00:49:37;100797.69;;;3.99;68.25
74960;BME280;63518;49.572;1.106;2023-04-03T00:52:11;100801.25;;;4.00;68.09
74960;BME280;63518;49.572;1.106;2023-04-03T00:54:41;100782.22;;;3.80;68.00
74960;BME280;63518;49.572;1.106;2023-04-03T00:57:09;100786.19;;;3.97;68.91
74960;BME280;63518;49.572;1.106;2023-04-03T00:59:43;100792.50;;;3.78;67.34
74960;BME280;63518;49.572;1.106;2023-04-03T01:02:11;100797.09;;;3.91;66.62
74960;BME280;63518;49.572;1.106;2023-04-03T01:04:41;100799.19;;;3.89;68.27
74960;BME280;63518;49.572;1.106;2023-04-03T01:07:24;100779.06;;;3.70;68.68
74960;BME280;63518;49.572;1.106;2023-04-03T01:09:57;100786.22;;;3.71;67.89
74960;BME280;63518;49.572;1.106;2023-04-03T01:12:27;100762.31;;;3.66;68.47
74960;BME280;63518;49.572;1.106;2023-04-03T01:14:59;100779.94;;;3.50;68.78
74960;BME280;63518;49.572;1.106;2023-04-03T01:20:25;100783.31;;;3.52;68.10
74960;BME280;63518;49.572;1.106;2023-04-03T01:28:16;100787.22;;;3.96;70.05
74960;BME280;63518;49.572;1.106;2023-04-03T01:31:26;100783.31;;;3.46;69.51
74960;BME280;63518;49.572;1.106;2023-04-03T01:34:12;100766.53;;;3.49;67.04
74960;BME280;63518;49.572;1.106;2023-04-03T01:36:39;100750.59;;;3.59;67.98
74960;BME280;63518;49.572;1.106;2023-04-03T01:39:36;100767.38;;;3.56;68.16
74960;BME280;63518;49.572;1.106;2023-04-03T01:42:03;100789.38;;;3.68;68.17
74960;BME280;63518;49.572;1.106;2023-04-03T01:44:31;100775.72;;;3.74;68.02
74960;BME280;63518;49.572;1.106;2023-04-03T01:47:05;100779.13;;;3.57;68.89
74960;BME280;63518;49.572;1.106;2023-04-03T01:49:39;100775.31;;;3.71;69.27
74960;BME280;63518;49.572;1.106;2023-04-03T01:52:05;100764.81;;;3.88;70.64
74960;BME280;63518;49.572;1.106;2023-04-03T01:54:32;100774.91;;;3.61;69.24
74960;BME280;63518;49.572;1.106;2023-04-03T01:56:59;100777.00;;;3.52;70.71
74960;BME280;63518;49.572;1.106;2023-04-03T01:59:26;100767.59;;;3.41;69.47
74960;BME280;63518;49.572;1.106;2023-04-03T02:01:53;100766.13;;;3.25;69.81
74960;BME280;63518;49.572;1.106;2023-04-03T02:04:20;100769.06;;;3.50;69.63
74960;BME280;63518;49.572;1.106;2023-04-03T02:06:47;100769.66;;;3.52;69.87
74960;BME280;63518;49.572;1.106;2023-04-03T02:09:14;100748.75;;;3.33;69.44
74960;BME280;63518;49.572;1.106;2023-04-03T02:11:41;100785.41;;;3.37;69.33
74960;BME280;63518;49.572;1.106;2023-04-03T02:14:07;100769.66;;;3.39;69.25
74960;BME280;63518;49.572;1.106;2023-04-03T02:16:34;100767.81;;;3.40;69.17
74960;BME280;63518;49.572;1.106;2023-04-03T02:19:01;100766.94;;;3.66;70.78
74960;BME280;63518;49.572;1.106;2023-04-03T02:21:28;100791.25;;;3.54;68.79
74960;BME280;63518;49.572;1.106;2023-04-03T02:23:55;100770.28;;;3.68;69.38
74960;BME280;63518;49.572;1.106;2023-04-03T02:26:23;100773.63;;;3.63;70.11
74960;BME280;63518;49.572;1.106;2023-04-03T02:28:49;100777.44;;;3.56;70.99
74960;BME280;63518;49.572;1.106;2023-04-03T02:31:17;100781.41;;;3.73;71.19
74960;BME280;63518;49.572;1.106;2023-04-03T02:33:44;100783.25;;;3.79;70.14
74960;BME280;63518;49.572;1.106;2023-04-03T02:36:11;100776.59;;;3.42;69.37
74960;BME280;63518;49.572;1.106;2023-04-03T02:38:38;100790.63;;;3.72;68.89
74960;BME280;63518;49.572;1.106;2023-04-03T02:41:07;100792.53;;;3.51;70.31
74960;BME280;63518;49.572;1.106;2023-04-03T02:43:35;100782.03;;;3.55;70.42
74960;BME280;63518;49.572;1.106;2023-04-03T02:46:02;100766.97;;;3.33;70.89
74960;BME280;63518;49.572;1.106;2023-04-03T02:48:29;100789.81;;;3.58;72.49
74960;BME280;63518;49.572;1.106;2023-04-03T02:50:56;100791.50;;;3.26;69.80
74960;BME280;63518;49.572;1.106;2023-04-03T02:53:24;100782.69;;;3.24;72.06
74960;BME280;63518;49.572;1.106;2023-04-03T02:55:50;100773.88;;;3.15;72.14
74960;BME280;63518;49.572;1.106;2023-04-03T02:58:17;100751.84;;;2.84;70.73
74960;BME280;63518;49.572;1.106;2023-04-03T03:00:44;100782.25;;;2.94;70.81
74960;BME280;63518;49.572;1.106;2023-04-03T03:03:11;100787.88;;;2.86;70.46
74960;BME280;63518;49.572;1.106;2023-04-03T03:05:39;100756.22;;;2.65;72.93
74960;BME280;63518;49.572;1.106;2023-04-03T03:08:06;100771.50;;;2.66;71.77
74960;BME280;63518;49.572;1.106;2023-04-03T03:10:33;100788.03;;;2.64;72.21
74960;BME280;63518;49.572;1.106;2023-04-03T03:13:00;100786.53;;;2.55;71.87
74960;BME280;63518;49.572;1.106;2023-04-03T03:15:27;100784.06;;;2.74;72.00
74960;BME280;63518;49.572;1.106;2023-04-03T03:17:54;100773.75;;;2.49;71.97
74960;BME280;63518;49.572;1.106;2023-04-03T03:20:21;100761.81;;;2.50;72.72
74960;BME280;63518;49.572;1.106;2023-04-03T03:22:48;100776.13;;;2.92;72.75
74960;BME280;63518;49.572;1.106;2023-04-03T03:25:15;100754.16;;;2.80;73.30
74960;BME280;63518;49.572;1.106;2023-04-03T03:27:41;100772.50;;;2.58;73.13
74960;BME280;63518;49.572;1.106;2023-04-03T03:30:08;100765.41;;;2.64;72.68
74960;BME280;63518;49.572;1.106;2023-04-03T03:32:36;100767.09;;;2.65;73.17
74960;BME280;63518;49.572;1.106;2023-04-03T03:35:02;100767.88;;;2.39;73.62
74960;BME280;63518;49.572;1.106;2023-04-03T03:37:29;100772.22;;;2.33;74.20
74960;BME280;63518;49.572;1.106;2023-04-03T03:39:56;100765.13;;;2.32;73.58
74960;BME280;63518;49.572;1.106;2023-04-03T03:42:23;100768.91;;;2.38;73.99
74960;BME280;63518;49.572;1.106;2023-04-03T03:44:50;100747.88;;;2.12;74.79
74960;BME280;63518;49.572;1.106;2023-04-03T03:47:18;100778.81;;;2.11;74.82
74960;BME280;63518;49.572;1.106;2023-04-03T03:49:45;100782.38;;;2.11;74.18
74960;BME280;63518;49.572;1.106;2023-04-03T03:52:12;100775.94;;;2.19;74.38
74960;BME280;63518;49.572;1.106;2023-04-03T03:54:39;100764.69;;;1.88;74.67
74960;BME280;63518;49.572;1.106;2023-04-03T03:57:06;100763.13;;;2.06;74.20
74960;BME280;63518;49.572;1.106;2023-04-03T03:59:33;100773.38;;;2.11;73.88
74960;BME280;63518;49.572;1.106;2023-04-03T04:02:00;100769.63;;;2.12;74.40
74960;BME280;63518;49.572;1.106;2023-04-03T04:04:27;100749.03;;;1.96;74.48
74960;BME280;63518;49.572;1.106;2023-04-03T04:06:54;100741.34;;;2.00;74.16
74960;BME280;63518;49.572;1.106;2023-04-03T04:09:21;100728.19;;;2.10;74.02
74960;BME280;63518;49.572;1.106;2023-04-03T04:11:48;100752.00;;;2.01;73.56
74960;BME280;63518;49.572;1.106;2023-04-03T04:14:14;100754.94;;;2.00;73.12
74960;BME280;63518;49.572;1.106;2023-04-03T04:16:42;100753.78;;;2.22;73.22
74960;BME280;63518;49.572;1.106;2023-04-03T04:19:09;100758.19;;;1.89;73.77
74960;BME280;63518;49.572;1.106;2023-04-03T04:21:42;100754.69;;;1.95;73.60
74960;BME280;63518;49.572;1.106;2023-04-03T04:24:13;100748.66;;;1.99;73.74
74960;BME280;63518;49.572;1.106;2023-04-03T04:26:41;100735.81;;;1.86;74.57
74960;BME280;63518;49.572;1.106;2023-04-03T04:29:09;100722.97;;;1.67;74.10
74960;BME280;63518;49.572;1.106;2023-04-03T04:31:36;100744.06;;;1.65;73.89
74960;BME280;63518;49.572;1.106;2023-04-03T04:34:03;100721.91;;;1.62;74.58
74960;BME280;63518;49.572;1.106;2023-04-03T04:36:30;100744.47;;;1.62;74.69
74960;BME280;63518;49.572;1.106;2023-04-03T04:38:57;100741.03;;;1.47;74.74
74960;BME280;63518;49.572;1.106;2023-04-03T04:41:25;100733.75;;;1.54;74.75
74960;BME280;63518;49.572;1.106;2023-04-03T04:43:52;100729.38;;;1.53;75.06
74960;BME280;63518;49.572;1.106;2023-04-03T04:46:19;100744.31;;;1.42;75.33
74960;BME280;63518;49.572;1.106;2023-04-03T04:48:46;100727.75;;;1.30;75.15
74960;BME280;63518;49.572;1.106;2023-04-03T04:51:13;100747.97;;;1.56;74.86
74960;BME280;63518;49.572;1.106;2023-04-03T04:53:41;100718.19;;;1.35;75.65
74960;BME280;63518;49.572;1.106;2023-04-03T04:56:08;100736.31;;;1.27;75.33
74960;BME280;63518;49.572;1.106;2023-04-03T04:58:35;100730.88;;;1.27;76.08
74960;BME280;63518;49.572;1.106;2023-04-03T05:01:06;100734.97;;;1.45;75.66
74960;BME280;63518;49.572;1.106;2023-04-03T05:03:34;100735.31;;;1.35;75.54
74960;BME280;63518;49.572;1.106;2023-04-03T05:06:01;100727.94;;;1.29;76.42
74960;BME280;63518;49.572;1.106;2023-04-03T05:08:28;100744.78;;;1.46;75.84
74960;BME280;63518;49.572;1.106;2023-04-03T05:10:55;100747.03;;;1.36;76.14
74960;BME280;63518;49.572;1.106;2023-04-03T05:13:22;100739.16;;;1.19;75.75
74960;BME280;63518;49.572;1.106;2023-04-03T05:15:48;100754.06;;;1.30;76.01
74960;BME280;63518;49.572;1.106;2023-04-03T05:18:15;100737.56;;;1.32;76.88
74960;BME280;63518;49.572;1.106;2023-04-03T05:20:42;100739.34;;;1.18;76.15
74960;BME280;63518;49.572;1.106;2023-04-03T05:23:10;100749.28;;;1.32;76.23
74960;BME280;63518;49.572;1.106;2023-04-03T05:25:38;100751.91;;;1.19;76.45
74960;BME280;63518;49.572;1.106;2023-04-03T05:28:05;100748.44;;;1.32;76.59
74960;BME280;63518;49.572;1.106;2023-04-03T05:30:33;100741.38;;;1.37;76.05
74960;BME280;63518;49.572;1.106;2023-04-03T05:32:59;100732.84;;;1.12;76.70
74960;BME280;63518;49.572;1.106;2023-04-03T05:35:26;100715.88;;;1.10;76.11
74960;BME280;63518;49.572;1.106;2023-04-03T05:37:53;100754.28;;;1.28;76.35
74960;BME280;63518;49.572;1.106;2023-04-03T05:40:21;100745.81;;;1.17;76.12
74960;BME280;63518;49.572;1.106;2023-04-03T05:42:48;100716.31;;;0.86;77.30
74960;BME280;63518;49.572;1.106;2023-04-03T05:45:15;100737.50;;;0.97;76.81
74960;BME280;63518;49.572;1.106;2023-04-03T05:47:42;100752.53;;;1.21;77.49
74960;BME280;63518;49.572;1.106;2023-04-03T05:50:09;100745.28;;;1.28;77.21
74960;BME280;63518;49.572;1.106;2023-04-03T05:52:37;100748.59;;;1.23;77.18
74960;BME280;63518;49.572;1.106;2023-04-03T05:55:07;100741.34;;;1.09;77.42
74960;BME280;63518;49.572;1.106;2023-04-03T05:57:34;100750.47;;;1.23;77.14
74960;BME280;63518;49.572;1.106;2023-04-03T06:00:01;100747.47;;;1.18;77.26
74960;BME280;63518;49.572;1.106;2023-04-03T06:02:29;100749.63;;;1.22;77.06
74960;BME280;63518;49.572;1.106;2023-04-03T06:04:56;100729.03;;;1.07;77.45
74960;BME280;63518;49.572;1.106;2023-04-03T06:07:24;100736.25;;;1.21;77.73
74960;BME280;63518;49.572;1.106;2023-04-03T06:09:56;100751.25;;;1.45;77.66
74960;BME280;63518;49.572;1.106;2023-04-03T06:12:23;100730.22;;;1.25;77.68
74960;BME280;63518;49.572;1.106;2023-04-03T06:14:50;100745.81;;;1.45;77.04
74960;BME280;63518;49.572;1.106;2023-04-03T06:17:18;100747.56;;;1.52;76.97
74960;BME280;63518;49.572;1.106;2023-04-03T06:19:45;100747.66;;;1.38;77.63
74960;BME280;63518;49.572;1.106;2023-04-03T06:22:12;100747.75;;;1.51;77.29
74960;BME280;63518;49.572;1.106;2023-04-03T06:24:39;100745.50;;;1.61;76.87
74960;BME280;63518;49.572;1.106;2023-04-03T06:27:07;100732.63;;;1.42;77.41
74960;BME280;63518;49.572;1.106;2023-04-03T06:29:34;100744.88;;;1.59;77.35
74960;BME280;63518;49.572;1.106;2023-04-03T06:32:01;100737.06;;;1.49;77.52
74960;BME280;63518;49.572;1.106;2023-04-03T06:34:28;100722.47;;;1.50;76.33
74960;BME280;63518;49.572;1.106;2023-04-03T06:36:55;100742.16;;;1.59;77.79
74960;BME280;63518;49.572;1.106;2023-04-03T06:39:22;100747.31;;;1.82;76.54
74960;BME280;63518;49.572;1.106;2023-04-03T06:41:52;100758.19;;;1.82;77.12
74960;BME280;63518;49.572;1.106;2023-04-03T06:44:19;100750.78;;;1.69;76.67
74960;BME280;63518;49.572;1.106;2023-04-03T06:46:46;100759.44;;;1.86;76.89
74960;BME280;63518;49.572;1.106;2023-04-03T06:49:13;100734.41;;;1.97;76.29
74960;BME280;63518;49.572;1.106;2023-04-03T06:51:40;100752.84;;;2.02;76.62
74960;BME280;63518;49.572;1.106;2023-04-03T06:54:07;100745.41;;;1.76;76.87
74960;BME280;63518;49.572;1.106;2023-04-03T06:56:34;100748.81;;;1.91;77.94
74960;BME280;63518;49.572;1.106;2023-04-03T06:59:02;100764.66;;;2.22;77.01
74960;BME280;63518;49.572;1.106;2023-04-03T07:01:29;100758.91;;;2.04;77.46
74960;BME280;63518;49.572;1.106;2023-04-03T07:03:57;100749.56;;;2.20;77.21
74960;BME280;63518;49.572;1.106;2023-04-03T07:06:24;100748.69;;;2.06;77.89
74960;BME280;63518;49.572;1.106;2023-04-03T07:08:54;100739.94;;;2.17;77.65
74960;BME280;63518;49.572;1.106;2023-04-03T07:11:22;100749.66;;;2.39;76.98
74960;BME280;63518;49.572;1.106;2023-04-03T07:13:49;100775.31;;;2.78;77.29
74960;BME280;63518;49.572;1.106;2023-04-03T07:16:16;100775.66;;;2.55;77.10
74960;BME280;63518;49.572;1.106;2023-04-03T07:18:44;100782.81;;;2.63;77.21
74960;BME280;63518;49.572;1.106;2023-04-03T07:21:12;100774.63;;;2.63;78.25
74960;BME280;63518;49.572;1.106;2023-04-03T07:23:39;100782.69;;;2.36;77.46
74960;BME280;63518;49.572;1.106;2023-04-03T07:26:05;100777.25;;;2.36;77.88
74960;BME280;63518;49.572;1.106;2023-04-03T07:28:33;100771.06;;;2.56;77.66
74960;BME280;63518;49.572;1.106;2023-04-03T07:31:01;100777.97;;;2.58;77.81
74960;BME280;63518;49.572;1.106;2023-04-03T07:33:29;100766.44;;;2.56;77.69
74960;BME280;63518;49.572;1.106;2023-04-03T07:35:56;100754.94;;;2.67;77.31
74960;BME280;63518;49.572;1.106;2023-04-03T07:38:23;100749.22;;;2.42;78.53
74960;BME280;63518;49.572;1.106;2023-04-03T07:40:50;100769.53;;;2.40;78.38
74960;BME280;63518;49.572;1.106;2023-04-03T07:43:20;100774.00;;;2.61;76.97
74960;BME280;63518;49.572;1.106;2023-04-03T07:45:48;100753.50;;;2.65;78.27
74960;BME280;63518;49.572;1.106;2023-04-03T07:48:20;100762.25;;;2.54;78.43
74960;BME280;63518;49.572;1.106;2023-04-03T07:50:47;100768.41;;;2.95;78.17
74960;BME280;63518;49.572;1.106;2023-04-03T07:53:14;100765.28;;;3.12;76.94
74960;BME280;63518;49.572;1.106;2023-04-03T07:55:41;100774.47;;;2.97;77.28
74960;BME280;63518;49.572;1.106;2023-04-03T07:58:17;100772.41;;;3.06;76.89
74960;BME280;63518;49.572;1.106;2023-04-03T08:00:45;100768.63;;;3.47;76.05
74960;BME280;63518;49.572;1.106;2023-04-03T08:03:13;100749.34;;;2.95;76.61
74960;BME280;63518;49.572;1.106;2023-04-03T08:05:41;100752.69;;;2.91;76.09
74960;BME280;63518;49.572;1.106;2023-04-03T08:08:13;100775.34;;;4.35;74.41
74960;BME280;63518;49.572;1.106;2023-04-03T08:10:41;100764.63;;;3.69;74.68
74960;BME280;63518;49.572;1.106;2023-04-03T08:13:09;100768.88;;;4.17;75.04
74960;BME280;63518;49.572;1.106;2023-04-03T08:15:36;100774.28;;;4.36;73.84
74960;BME280;63518;49.572;1.106;2023-04-03T08:18:04;100774.94;;;4.77;72.56
74960;BME280;63518;49.572;1.106;2023-04-03T08:20:30;100769.06;;;4.73;71.99
74960;BME280;63518;49.572;1.106;2023-04-03T08:22:57;100765.66;;;4.84;72.97
74960;BME280;63518;49.572;1.106;2023-04-03T08:25:24;100763.13;;;4.51;71.04
74960;BME280;63518;49.572;1.106;2023-04-03T08:27:51;100749.31;;;3.68;72.28
74960;BME280;63518;49.572;1.106;2023-04-03T08:30:18;100777.78;;;3.92;71.77
74960;BME280;63518;49.572;1.106;2023-04-03T08:32:45;100773.78;;;3.95;70.70
74960;BME280;63518;49.572;1.106;2023-04-03T08:35:12;100768.41;;;3.62;71.48
74960;BME280;63518;49.572;1.106;2023-04-03T08:37:39;100781.13;;;4.01;70.25
74960;BME280;63518;49.572;1.106;2023-04-03T08:40:10;100786.56;;;4.01;69.62
74960;BME280;63518;49.572;1.106;2023-04-03T08:42:51;100782.81;;;3.95;70.66
74960;BME280;63518;49.572;1.106;2023-04-03T08:48:11;100789.22;;;5.10;68.17
74960;BME280;63518;49.572;1.106;2023-04-03T08:50:41;100782.88;;;5.41;67.66
74960;BME280;63518;49.572;1.106;2023-04-03T08:53:15;100796.06;;;4.50;67.91
74960;BME280;63518;49.572;1.106;2023-04-03T08:55:45;100789.41;;;4.32;66.96
74960;BME280;63518;49.572;1.106;2023-04-03T08:58:16;100796.91;;;4.50;69.60
74960;BME280;63518;49.572;1.106;2023-04-03T09:01:03;100779.44;;;4.06;67.56
74960;BME280;63518;49.572;1.106;2023-04-03T09:03:34;100769.22;;;3.89;67.14
74960;BME280;63518;49.572;1.106;2023-04-03T09:09:04;100787.47;;;3.88;68.81
74960;BME280;63518;49.572;1.106;2023-04-03T09:15:00;100778.69;;;4.44;69.67
74960;BME280;63518;49.572;1.106;2023-04-03T09:23:33;100780.25;;;5.28;67.33
74960;BME280;63518;49.572;1.106;2023-04-03T09:26:07;100765.97;;;5.01;67.62
74960;BME280;63518;49.572;1.106;2023-04-03T09:28:38;100770.44;;;5.89;66.13
74960;BME280;63518;49.572;1.106;2023-04-03T09:31:22;100770.84;;;4.61;66.91
74960;BME280;63518;49.572;1.106;2023-04-03T09:33:52;100763.38;;;4.43;65.88
74960;BME280;63518;49.572;1.106;2023-04-03T09:36:44;100766.13;;;4.30;66.03
74960;BME280;63518;49.572;1.106;2023-04-03T09:39:17;100766.72;;;4.45;67.77
74960;BME280;63518;49.572;1.106;2023-04-03T09:42:04;100767.16;;;4.35;66.58
74960;BME280;63518;49.572;1.106;2023-04-03T09:44:36;100769.06;;;4.73;66.76
74960;BME280;63518;49.572;1.106;2023-04-03T09:47:25;100764.16;;;4.88;65.27
74960;BME280;63518;49.572;1.106;2023-04-03T09:52:48;100761.47;;;4.37;66.91
74960;BME280;63518;49.572;1.106;2023-04-03T09:55:22;100758.41;;;4.65;66.81
74960;BME280;63518;49.572;1.106;2023-04-03T09:57:59;100753.88;;;5.15;66.23
74960;BME280;63518;49.572;1.106;2023-04-03T10:00:36;100752.50;;;5.74;63.56
74960;BME280;63518;49.572;1.106;2023-04-03T10:03:05;100742.63;;;5.30;63.68
74960;BME280;63518;49.572;1.106;2023-04-03T10:05:36;100749.44;;;4.89;64.08
74960;BME280;63518;49.572;1.106;2023-04-03T10:08:20;100761.25;;;6.20;62.85
74960;BME280;63518;49.572;1.106;2023-04-03T10:10:48;100760.25;;;5.77;63.41
74960;BME280;63518;49.572;1.106;2023-04-03T10:13:32;100766.69;;;7.16;63.21
74960;BME280;63518;49.572;1.106;2023-04-03T10:16:12;100760.94;;;8.35;63.04
74960;BME280;63518;49.572;1.106;2023-04-03T10:18:47;100751.25;;;9.68;59.58
74960;BME280;63518;49.572;1.106;2023-04-03T10:24:01;100744.44;;;9.37;56.67
74960;BME280;63518;49.572;1.106;2023-04-03T10:29:40;100753.63;;;11.13;50.03
74960;BME280;63518;49.572;1.106;2023-04-03T10:34:44;100736.13;;;12.82;49.90
74960;BME280;63518;49.572;1.106;2023-04-03T10:37:26;100744.16;;;12.93;52.33
74960;BME280;63518;49.572;1.106;2023-04-03T10:39:59;100740.09;;;13.42;50.56
74960;BME280;63518;49.572;1.106;2023-04-03T10:42:46;100736.16;;;12.09;48.73
74960;BME280;63518;49.572;1.106;2023-04-03T10:45:37;100741.19;;;13.76;47.63
74960;BME280;63518;49.572;1.106;2023-04-03T10:48:37;100726.91;;;14.39;48.13
74960;BME280;63518;49.572;1.106;2023-04-03T10:54:20;100726.38;;;9.25;53.08
74960;BME280;63518;49.572;1.106;2023-04-03T10:56:53;100719.97;;;7.70;57.28
74960;BME280;63518;49.572;1.106;2023-04-03T10:59:41;100732.78;;;10.68;53.39
74960;BME280;63518;49.572;1.106;2023-04-03T11:02:29;100728.25;;;10.35;55.30
74960;BME280;63518;49.572;1.106;2023-04-03T11:05:04;100732.63;;;11.39;47.12
74960;BME280;63518;49.572;1.106;2023-04-03T11:07:41;100721.03;;;9.01;53.69
74960;BME280;63518;49.572;1.106;2023-04-03T11:10:14;100699.41;;;7.96;56.06
74960;BME280;63518;49.572;1.106;2023-04-03T11:12:46;100721.38;;;7.96;56.57
74960;BME280;63518;49.572;1.106;2023-04-03T11:15:16;100703.34;;;8.40;58.29
74960;BME280;63518;49.572;1.106;2023-04-03T11:17:52;100715.75;;;8.43;55.75
74960;BME280;63518;49.572;1.106;2023-04-03T11:20:29;100722.44;;;9.21;58.59
74960;BME280;63518;49.572;1.106;2023-04-03T11:23:06;100717.66;;;8.14;58.72
74960;BME280;63518;49.572;1.106;2023-04-03T11:25:38;100719.97;;;7.93;59.80
74960;BME280;63518;49.572;1.106;2023-04-03T11:28:14;100713.31;;;8.29;57.16
74960;BME280;63518;49.572;1.106;2023-04-03T11:33:32;100693.88;;;7.56;57.92
74960;BME280;63518;49.572;1.106;2023-04-03T11:36:10;100692.69;;;8.44;59.38
74960;BME280;63518;49.572;1.106;2023-04-03T11:38:56;100694.13;;;8.18;56.62
74960;BME280;63518;49.572;1.106;2023-04-03T11:41:27;100688.28;;;8.71;55.88
74960;BME280;63518;49.572;1.106;2023-04-03T11:46:54;100695.75;;;9.21;56.07
74960;BME280;63518;49.572;1.106;2023-04-03T11:49:59;100691.91;;;8.60;52.36
74960;BME280;63518;49.572;1.106;2023-04-03T11:58:03;100678.59;;;11.96;55.84
74960;BME280;63518;49.572;1.106;2023-04-03T12:21:16;100652.66;;;9.44;54.37
74960;BME280;63518;49.572;1.106;2023-04-03T12:24:01;100671.81;;;14.61;50.56
74960;BME280;63518;49.572;1.106;2023-04-03T12:26:44;100668.66;;;13.34;50.60
74960;BME280;63518;49.572;1.106;2023-04-03T12:29:20;100665.09;;;12.97;51.74
74960;BME280;63518;49.572;1.106;2023-04-03T12:42:48;100669.69;;;10.50;52.82
74960;BME280;63518;49.572;1.106;2023-04-03T12:45:23;100660.19;;;10.36;51.17
74960;BME280;63518;49.572;1.106;2023-04-03T12:47:55;100661.78;;;11.18;53.51
74960;BME280;63518;49.572;1.106;2023-04-03T12:50:30;100657.16;;;9.72;51.77
74960;BME280;63518;49.572;1.106;2023-04-03T12:53:01;100642.44;;;10.05;50.60
74960;BME280;63518;49.572;1.106;2023-04-03T12:55:30;100627.53;;;11.14;48.75
74960;BME280;63518;49.572;1.106;2023-04-03T12:57:57;100639.63;;;10.43;50.71
74960;BME280;63518;49.572;1.106;2023-04-03T13:00:39;100637.28;;;10.89;52.34
74960;BME280;63518;49.572;1.106;2023-04-03T13:03:21;100637.41;;;10.72;51.37
74960;BME280;63518;49.572;1.106;2023-04-03T13:05:50;100633.19;;;10.65;49.06
74960;BME280;63518;49.572;1.106;2023-04-03T13:08:18;100637.00;;;10.10;48.45
74960;BME280;63518;49.572;1.106;2023-04-03T13:11:01;100614.50;;;11.04;51.18
74960;BME280;63518;49.572;1.106;2023-04-03T13:13:29;100620.19;;;12.60;45.37
74960;BME280;63518;49.572;1.106;2023-04-03T13:15:56;100640.47;;;10.49;49.51
74960;BME280;63518;49.572;1.106;2023-04-03T13:18:31;100624.34;;;10.95;48.33
74960;BME280;63518;49.572;1.106;2023-04-03T13:21:07;100628.06;;;11.48;49.42
74960;BME280;63518;49.572;1.106;2023-04-03T13:23:40;100618.00;;;11.31;47.21
74960;BME280;63518;49.572;1.106;2023-04-03T13:26:09;100623.13;;;11.55;47.32
74960;BME280;63518;49.572;1.106;2023-04-03T13:28:38;100610.91;;;11.98;47.14
74960;BME280;63518;49.572;1.106;2023-04-03T13:33:37;100609.22;;;11.87;44.31
74960;BME280;63518;49.572;1.106;2023-04-03T13:36:23;100610.34;;;11.39;45.35
74960;BME280;63518;49.572;1.106;2023-04-03T13:39:22;100619.59;;;12.27;47.45
74960;BME280;63518;49.572;1.106;2023-04-03T13:41:53;100599.53;;;11.84;47.31
74960;BME280;63518;49.572;1.106;2023-04-03T13:47:21;100614.09;;;15.32;44.09
74960;BME280;63518;49.572;1.106;2023-04-03T13:50:14;100610.25;;;12.49;43.25
74960;BME280;63518;49.572;1.106;2023-04-03T13:53:08;100608.59;;;12.68;44.89
74960;BME280;63518;49.572;1.106;2023-04-03T13:55:53;100612.44;;;12.52;46.59
74960;BME280;63518;49.572;1.106;2023-04-03T13:58:27;100607.41;;;12.18;45.21
74960;BME280;63518;49.572;1.106;2023-04-03T14:01:11;100611.91;;;13.31;46.14
74960;BME280;63518;49.572;1.106;2023-04-03T14:03:45;100599.63;;;11.47;48.26
74960;BME280;63518;49.572;1.106;2023-04-03T14:06:15;100610.66;;;11.52;47.28
74960;BME280;63518;49.572;1.106;2023-04-03T14:08:44;100598.63;;;12.92;48.57
74960;BME280;63518;49.572;1.106;2023-04-03T14:11:16;100594.34;;;11.93;45.46
74960;BME280;63518;49.572;1.106;2023-04-03T14:13:46;100593.41;;;13.06;44.39
74960;BME280;63518;49.572;1.106;2023-04-03T14:16:19;100589.06;;;11.86;44.15
74960;BME280;63518;49.572;1.106;2023-04-03T14:18:48;100587.25;;;11.60;45.18
74960;BME280;63518;49.572;1.106;2023-04-03T14:21:18;100572.94;;;11.16;46.33
74960;BME280;63518;49.572;1.106;2023-04-03T14:23:45;100572.50;;;11.97;44.55
74960;BME280;63518;49.572;1.106;2023-04-03T14:26:17;100576.88;;;11.82;45.39
74960;BME280;63518;49.572;1.106;2023-04-03T14:28:46;100565.72;;;12.75;44.98
74960;BME280;63518;49.572;1.106;2023-04-03T14:31:14;100540.31;;;13.74;41.88
74960;BME280;63518;49.572;1.106;2023-04-03T14:33:42;100563.44;;;12.11;44.67
74960;BME280;63518;49.572;1.106;2023-04-03T14:36:18;100561.28;;;12.34;44.22
74960;BME280;63518;49.572;1.106;2023-04-03T14:38:46;100565.44;;;12.72;45.48
74960;BME280;63518;49.572;1.106;2023-04-03T14:41:16;100559.72;;;11.75;45.12
74960;BME280;63518;49.572;1.106;2023-04-03T14:43:45;100560.16;;;12.55;46.55